Metar z połowy godziny Komunikat METAR ze strony awiacja.imgw.pl Metar G30 EPKT METAR EPKT 190230Z VRB01KT CAVOK 14/11 Q1020 =